createdAt,value
2017-12-17T13:29:33.989Z,960.18
2017-12-17T13:30:32.775Z,960.17
2017-12-17T13:31:34.098Z,960.18
2017-12-17T13:32:32.944Z,960.18
2017-12-17T13:33:32.119Z,960.22
2017-12-17T13:34:33.838Z,960.30
2017-12-17T13:35:33.323Z,960.19
2017-12-17T13:36:30.881Z,960.22
2017-12-17T13:37:30.185Z,960.22
2017-12-17T13:38:30.628Z,960.20
2017-12-17T13:39:32.960Z,960.21
2017-12-17T13:40:31.619Z,960.22
2017-12-17T13:41:31.374Z,960.25
2017-12-17T13:42:30.786Z,960.25
2017-12-17T13:43:30.714Z,960.26
2017-12-17T13:44:32.032Z,960.28
2017-12-17T13:45:30.422Z,960.27
2017-12-17T13:46:31.627Z,960.31
2017-12-17T13:47:30.804Z,960.26
2017-12-17T13:48:30.390Z,960.37
2017-12-17T13:49:30.942Z,960.21
2017-12-17T13:50:30.490Z,960.35
2017-12-17T13:51:31.344Z,960.26
2017-12-17T13:52:31.050Z,960.34
2017-12-17T13:53:30.849Z,960.38
2017-12-17T13:54:31.235Z,960.39
2017-12-17T13:55:31.079Z,960.38
2017-12-17T13:56:30.409Z,960.38
2017-12-17T13:57:30.943Z,960.43
2017-12-17T13:58:30.892Z,960.35
2017-12-17T13:59:31.443Z,960.37
2017-12-17T14:00:30.427Z,960.36
2017-12-17T14:01:30.907Z,960.35
2017-12-17T14:02:31.429Z,960.37
2017-12-17T14:03:31.588Z,960.36
2017-12-17T14:04:31.130Z,960.36
2017-12-17T14:05:30.911Z,960.40
2017-12-17T14:07:33.326Z,960.37
2017-12-17T14:08:31.111Z,960.49
2017-12-17T14:09:33.721Z,960.50
2017-12-17T14:10:30.709Z,960.48
2017-12-17T14:11:34.518Z,960.49
2017-12-17T14:12:30.584Z,960.48
2017-12-17T14:13:52.291Z,960.46
2017-12-17T14:14:31.436Z,960.48
2017-12-17T14:15:31.826Z,960.45
2017-12-17T14:16:33.701Z,960.53
2017-12-17T14:17:35.139Z,960.51
2017-12-17T14:18:35.286Z,960.54
2017-12-17T14:20:00.397Z,960.63
2017-12-17T14:20:32.049Z,960.51
2017-12-17T14:21:31.032Z,960.57
2017-12-17T14:22:32.175Z,960.49
2017-12-17T14:23:30.973Z,960.54
2017-12-17T14:24:33.304Z,960.52
2017-12-17T14:26:32.261Z,960.57
2017-12-17T14:27:32.839Z,960.61
2017-12-17T14:28:35.081Z,960.62
2017-12-17T14:29:33.288Z,960.58
2017-12-17T14:30:33.681Z,960.54
2017-12-17T14:33:10.250Z,960.62
2017-12-17T14:34:10.857Z,960.56
2017-12-17T14:36:20.810Z,960.62
2017-12-17T14:37:19.190Z,960.60
2017-12-17T14:39:26.063Z,960.62
2017-12-17T14:40:26.040Z,960.63
2017-12-17T14:42:33.138Z,960.70
2017-12-17T14:43:33.225Z,960.68
2017-12-17T14:45:40.331Z,960.73
2017-12-17T14:48:45.849Z,960.76
2017-12-17T14:49:45.879Z,960.72
2017-12-17T14:51:52.537Z,960.74
2017-12-17T14:52:52.270Z,960.79
2017-12-17T14:55:00.774Z,960.84
2017-12-17T14:56:00.717Z,960.82
2017-12-17T14:57:54.074Z,960.84
2017-12-17T14:58:53.849Z,960.89
2017-12-17T15:00:48.430Z,960.87
2017-12-17T15:01:48.368Z,960.91
2017-12-17T15:03:57.069Z,960.89
2017-12-17T15:04:56.542Z,960.91
2017-12-17T15:07:03.977Z,960.95
2017-12-17T15:08:03.690Z,960.98
2017-12-17T15:09:56.810Z,960.89
2017-12-17T15:10:56.586Z,960.99
2017-12-17T15:12:57.450Z,961.04
2017-12-17T15:13:57.579Z,960.99
2017-12-17T15:16:04.977Z,961.04
2017-12-17T15:17:04.697Z,961.06
2017-12-17T15:19:11.378Z,961.07
2017-12-17T15:20:11.807Z,961.11
2017-12-17T15:22:21.710Z,961.06
2017-12-17T15:23:20.733Z,961.06
2017-12-17T15:25:26.229Z,961.16
2017-12-17T15:26:26.296Z,961.20
2017-12-17T15:28:34.795Z,961.20
2017-12-17T15:29:34.230Z,961.18
2017-12-17T15:31:41.507Z,961.24
2017-12-17T15:32:41.091Z,961.27
2017-12-17T15:34:48.894Z,961.25
2017-12-17T15:35:49.077Z,961.27
2017-12-17T15:37:56.343Z,961.32
2017-12-17T15:38:56.304Z,961.35
2017-12-17T15:41:06.459Z,961.30
2017-12-17T15:42:06.105Z,961.39
2017-12-17T15:43:06.028Z,961.37
2017-12-17T15:44:06.140Z,961.32
2017-12-17T15:45:06.461Z,961.36
2017-12-17T15:46:06.151Z,961.42
2017-12-17T15:47:06.282Z,961.40
2017-12-17T15:48:06.094Z,961.40
2017-12-17T15:49:06.104Z,961.40
2017-12-17T15:50:06.070Z,961.49
2017-12-17T15:51:06.080Z,961.50
2017-12-17T15:52:06.103Z,961.50
2017-12-17T15:53:06.520Z,961.54
2017-12-17T15:54:06.108Z,961.51
2017-12-17T15:55:06.132Z,961.55
2017-12-17T15:56:06.619Z,961.53
2017-12-17T15:57:06.683Z,961.47
2017-12-17T15:58:06.582Z,961.54
2017-12-17T15:59:06.100Z,961.56
2017-12-17T16:00:06.240Z,961.59
2017-12-17T16:01:06.086Z,961.60
2017-12-17T16:02:06.698Z,961.62
2017-12-17T16:03:06.168Z,961.57
2017-12-17T16:04:06.157Z,961.62
2017-12-17T16:05:06.212Z,961.65
2017-12-17T16:06:07.229Z,961.65
2017-12-17T16:07:06.217Z,961.65
2017-12-17T16:08:06.158Z,961.71
2017-12-17T16:09:06.198Z,961.74
2017-12-17T16:10:06.191Z,961.78
2017-12-17T16:11:06.255Z,961.78
2017-12-17T16:12:06.179Z,961.78
2017-12-17T16:13:06.463Z,961.79
2017-12-17T16:14:06.134Z,961.74
2017-12-17T16:15:06.198Z,961.81
2017-12-17T16:16:06.262Z,961.84
2017-12-17T16:17:06.409Z,961.80
2017-12-17T16:18:06.452Z,961.88
2017-12-17T16:19:06.808Z,961.92
2017-12-17T16:20:06.309Z,961.91
2017-12-17T16:21:06.153Z,961.96
2017-12-17T16:22:06.331Z,961.96
2017-12-17T16:23:06.171Z,961.99
2017-12-17T16:24:06.172Z,962.01
2017-12-17T16:25:06.386Z,962.04
2017-12-17T16:26:06.501Z,962.01
2017-12-17T16:27:06.220Z,962.05
2017-12-17T16:28:06.368Z,962.07
2017-12-17T16:29:06.172Z,962.08
2017-12-17T16:30:06.285Z,962.04
2017-12-17T16:31:07.203Z,962.07
2017-12-17T16:32:06.172Z,962.09
2017-12-17T16:33:06.528Z,962.09
2017-12-17T16:34:06.182Z,962.15
2017-12-17T16:35:07.317Z,962.16
2017-12-17T16:36:06.409Z,962.17
2017-12-17T16:37:06.211Z,962.13
2017-12-17T16:38:06.244Z,962.17
2017-12-17T16:39:06.233Z,962.16
2017-12-17T16:40:06.438Z,962.12
2017-12-17T16:41:06.323Z,962.17
2017-12-17T16:42:06.236Z,962.13
2017-12-17T16:43:06.231Z,962.20
2017-12-17T16:44:06.251Z,962.12
2017-12-17T16:45:06.414Z,962.17
2017-12-17T16:46:06.964Z,962.18
2017-12-17T16:47:06.270Z,962.17
2017-12-17T16:48:08.632Z,962.22
2017-12-17T16:49:06.594Z,962.27
2017-12-17T16:50:06.308Z,962.26
2017-12-17T16:51:07.208Z,962.26
2017-12-17T16:52:06.933Z,962.26
2017-12-17T16:53:06.316Z,962.22
2017-12-17T16:54:06.593Z,962.26
2017-12-17T16:55:06.293Z,962.25
2017-12-17T16:56:06.299Z,962.30
2017-12-17T16:57:06.314Z,962.25
2017-12-17T16:58:06.843Z,962.30
2017-12-17T16:59:06.350Z,962.25
2017-12-17T17:00:06.314Z,962.30
2017-12-17T17:01:06.437Z,962.27
2017-12-17T17:02:06.714Z,962.29
2017-12-17T17:03:06.363Z,962.32
2017-12-17T17:04:07.197Z,962.32
2017-12-17T17:05:06.328Z,962.32
2017-12-17T17:06:06.317Z,962.39
2017-12-17T17:07:06.569Z,962.36
2017-12-17T17:08:06.415Z,962.41
2017-12-17T17:09:06.312Z,962.44
2017-12-17T17:10:07.293Z,962.44
2017-12-17T17:11:06.544Z,962.44
2017-12-17T17:12:06.341Z,962.46
2017-12-17T17:13:06.554Z,962.45
2017-12-17T17:14:06.542Z,962.47
2017-12-17T17:15:06.625Z,962.43
2017-12-17T17:16:12.284Z,962.47
2017-12-17T17:17:06.657Z,962.45
2017-12-17T17:18:08.395Z,962.46
2017-12-17T17:19:06.403Z,962.50
2017-12-17T17:20:06.429Z,962.40
2017-12-17T17:21:06.335Z,962.49
2017-12-17T17:22:06.368Z,962.47
2017-12-17T17:23:06.836Z,962.47
2017-12-17T17:24:08.762Z,962.48
2017-12-17T17:25:06.610Z,962.48
2017-12-17T17:26:06.343Z,962.46
2017-12-17T17:27:07.416Z,962.46
2017-12-17T17:28:06.567Z,962.44
2017-12-17T17:29:06.537Z,962.45
2017-12-17T17:30:06.387Z,962.49
2017-12-17T17:31:06.883Z,962.41
2017-12-17T17:32:06.362Z,962.46
2017-12-17T17:33:06.454Z,962.49
2017-12-17T17:34:06.400Z,962.50
2017-12-17T17:35:06.376Z,962.50
2017-12-17T17:36:06.408Z,962.46
2017-12-17T17:37:06.529Z,962.53
2017-12-17T17:38:06.947Z,962.46
2017-12-17T17:39:06.382Z,962.48
2017-12-17T17:40:08.895Z,962.49
2017-12-17T17:41:06.395Z,962.53
2017-12-17T17:42:07.226Z,962.53
2017-12-17T17:44:06.659Z,962.55
2017-12-17T17:45:07.038Z,962.47
2017-12-17T17:46:06.574Z,962.58
2017-12-17T17:47:06.528Z,962.57
2017-12-17T17:48:10.886Z,962.58
2017-12-17T17:49:06.948Z,962.58
2017-12-17T17:50:27.529Z,962.62
2017-12-17T17:51:08.295Z,962.61
2017-12-17T17:52:06.495Z,962.65
2017-12-17T17:53:08.889Z,962.62
2017-12-17T17:54:06.538Z,962.63
2017-12-17T17:55:06.538Z,962.63
2017-12-17T17:56:27.647Z,962.65
2017-12-17T17:57:06.829Z,962.67
2017-12-17T17:58:08.554Z,962.72
2017-12-17T17:59:06.524Z,962.72
2017-12-17T18:00:06.548Z,962.77
2017-12-17T18:01:08.288Z,962.74
2017-12-17T18:02:27.553Z,962.74
2017-12-17T18:03:09.999Z,962.77
2017-12-17T18:04:06.898Z,962.78
2017-12-17T18:05:06.549Z,962.82
2017-12-17T18:06:09.034Z,962.79
2017-12-17T18:07:09.088Z,962.83
2017-12-17T18:08:28.095Z,962.86
2017-12-17T18:09:07.098Z,962.83
2017-12-17T18:10:06.551Z,962.81
2017-12-17T18:11:21.209Z,962.83
2017-12-17T18:12:07.627Z,962.82
2017-12-17T18:13:15.239Z,962.89
2017-12-17T18:14:27.774Z,962.90
2017-12-17T18:15:07.366Z,962.90
2017-12-17T18:16:06.799Z,962.91
2017-12-17T18:17:06.631Z,962.96
2017-12-17T18:18:06.618Z,962.93
2017-12-17T18:19:07.848Z,962.96
2017-12-17T18:20:27.816Z,962.93
2017-12-17T18:21:07.025Z,962.97
2017-12-17T18:22:07.790Z,963.00
2017-12-17T18:24:10.063Z,962.98
